sensor_id;sensor_type;location;lat;lon;timestamp;P1;durP1;ratioP1;P2;durP2;ratioP2
10114;SDS011;5097;43.260;27.812;2023-08-30T00:01:46;7.07;;;6.47;;
10114;SDS011;5097;43.260;27.812;2023-08-30T00:04:30;7.25;;;6.65;;
10114;SDS011;5097;43.260;27.812;2023-08-30T00:07:15;7.10;;;6.40;;
10114;SDS011;5097;43.260;27.812;2023-08-30T00:09:59;7.13;;;6.45;;
10114;SDS011;5097;43.260;27.812;2023-08-30T00:12:45;7.75;;;7.00;;
10114;SDS011;5097;43.260;27.812;2023-08-30T00:15:29;7.22;;;6.53;;
10114;SDS011;5097;43.260;27.812;2023-08-30T00:18:13;7.03;;;6.38;;
10114;SDS011;5097;43.260;27.812;2023-08-30T00:20:57;7.32;;;6.72;;
10114;SDS011;5097;43.260;27.812;2023-08-30T00:23:42;6.57;;;6.03;;
10114;SDS011;5097;43.260;27.812;2023-08-30T00:26:26;6.50;;;5.90;;
10114;SDS011;5097;43.260;27.812;2023-08-30T00:29:10;6.88;;;6.28;;
10114;SDS011;5097;43.260;27.812;2023-08-30T00:31:54;6.75;;;6.15;;
10114;SDS011;5097;43.260;27.812;2023-08-30T00:34:38;7.43;;;6.15;;
10114;SDS011;5097;43.260;27.812;2023-08-30T00:37:23;7.43;;;6.55;;
10114;SDS011;5097;43.260;27.812;2023-08-30T00:40:09;6.93;;;6.35;;
10114;SDS011;5097;43.260;27.812;2023-08-30T00:42:53;6.80;;;6.07;;
10114;SDS011;5097;43.260;27.812;2023-08-30T00:45:37;7.18;;;6.57;;
10114;SDS011;5097;43.260;27.812;2023-08-30T00:48:23;8.73;;;7.93;;
10114;SDS011;5097;43.260;27.812;2023-08-30T00:51:07;13.15;;;10.52;;
10114;SDS011;5097;43.260;27.812;2023-08-30T00:53:51;10.30;;;8.35;;
10114;SDS011;5097;43.260;27.812;2023-08-30T00:56:38;11.68;;;10.43;;
10114;SDS011;5097;43.260;27.812;2023-08-30T00:59:22;12.48;;;9.82;;
10114;SDS011;5097;43.260;27.812;2023-08-30T01:02:08;8.55;;;7.75;;
10114;SDS011;5097;43.260;27.812;2023-08-30T01:04:53;10.40;;;8.18;;
10114;SDS011;5097;43.260;27.812;2023-08-30T01:07:37;10.25;;;7.97;;
10114;SDS011;5097;43.260;27.812;2023-08-30T01:10:22;9.43;;;8.63;;
10114;SDS011;5097;43.260;27.812;2023-08-30T01:13:12;8.00;;;7.30;;
10114;SDS011;5097;43.260;27.812;2023-08-30T01:16:02;12.73;;;9.27;;
10114;SDS011;5097;43.260;27.812;2023-08-30T01:18:47;9.20;;;8.30;;
10114;SDS011;5097;43.260;27.812;2023-08-30T01:21:35;9.98;;;8.98;;
10114;SDS011;5097;43.260;27.812;2023-08-30T01:24:32;10.80;;;8.75;;
10114;SDS011;5097;43.260;27.812;2023-08-30T01:27:26;11.23;;;9.18;;
10114;SDS011;5097;43.260;27.812;2023-08-30T01:30:14;10.57;;;9.32;;
10114;SDS011;5097;43.260;27.812;2023-08-30T01:32:59;10.48;;;9.40;;
10114;SDS011;5097;43.260;27.812;2023-08-30T01:35:45;10.05;;;9.10;;
10114;SDS011;5097;43.260;27.812;2023-08-30T01:38:30;10.32;;;9.32;;
10114;SDS011;5097;43.260;27.812;2023-08-30T01:41:16;10.18;;;9.18;;
10114;SDS011;5097;43.260;27.812;2023-08-30T01:44:02;10.32;;;9.35;;
10114;SDS011;5097;43.260;27.812;2023-08-30T01:46:49;10.43;;;9.43;;
10114;SDS011;5097;43.260;27.812;2023-08-30T01:49:34;10.52;;;9.52;;
10114;SDS011;5097;43.260;27.812;2023-08-30T01:52:19;14.18;;;9.55;;
10114;SDS011;5097;43.260;27.812;2023-08-30T01:55:06;10.75;;;9.48;;
10114;SDS011;5097;43.260;27.812;2023-08-30T01:57:52;9.82;;;8.90;;
10114;SDS011;5097;43.260;27.812;2023-08-30T02:00:37;10.38;;;9.38;;
10114;SDS011;5097;43.260;27.812;2023-08-30T02:03:21;12.95;;;9.98;;
10114;SDS011;5097;43.260;27.812;2023-08-30T02:06:06;10.27;;;9.35;;
10114;SDS011;5097;43.260;27.812;2023-08-30T02:08:55;10.23;;;9.23;;
10114;SDS011;5097;43.260;27.812;2023-08-30T02:11:43;10.45;;;9.45;;
10114;SDS011;5097;43.260;27.812;2023-08-30T02:14:29;10.38;;;9.27;;
10114;SDS011;5097;43.260;27.812;2023-08-30T02:17:15;10.65;;;9.63;;
10114;SDS011;5097;43.260;27.812;2023-08-30T02:20:00;13.95;;;11.32;;
10114;SDS011;5097;43.260;27.812;2023-08-30T02:22:45;15.98;;;12.27;;
10114;SDS011;5097;43.260;27.812;2023-08-30T02:25:29;13.15;;;10.90;;
10114;SDS011;5097;43.260;27.812;2023-08-30T02:28:13;11.60;;;10.05;;
10114;SDS011;5097;43.260;27.812;2023-08-30T02:30:57;10.30;;;9.20;;
10114;SDS011;5097;43.260;27.812;2023-08-30T02:33:42;10.80;;;9.35;;
10114;SDS011;5097;43.260;27.812;2023-08-30T02:36:26;10.75;;;9.65;;
10114;SDS011;5097;43.260;27.812;2023-08-30T02:39:11;10.73;;;9.63;;
10114;SDS011;5097;43.260;27.812;2023-08-30T02:41:57;10.52;;;9.52;;
10114;SDS011;5097;43.260;27.812;2023-08-30T02:44:41;11.93;;;10.70;;
10114;SDS011;5097;43.260;27.812;2023-08-30T02:47:25;12.52;;;11.27;;
10114;SDS011;5097;43.260;27.812;2023-08-30T02:50:10;15.02;;;13.52;;
10114;SDS011;5097;43.260;27.812;2023-08-30T02:52:54;15.10;;;13.60;;
10114;SDS011;5097;43.260;27.812;2023-08-30T02:55:38;13.60;;;12.20;;
10114;SDS011;5097;43.260;27.812;2023-08-30T02:58:21;15.27;;;13.43;;
10114;SDS011;5097;43.260;27.812;2023-08-30T03:01:11;13.82;;;12.45;;
10114;SDS011;5097;43.260;27.812;2023-08-30T03:03:55;14.20;;;12.20;;
10114;SDS011;5097;43.260;27.812;2023-08-30T03:06:40;12.73;;;11.02;;
10114;SDS011;5097;43.260;27.812;2023-08-30T03:09:24;11.90;;;10.77;;
10114;SDS011;5097;43.260;27.812;2023-08-30T03:12:09;10.85;;;9.85;;
10114;SDS011;5097;43.260;27.812;2023-08-30T03:14:53;13.57;;;10.80;;
10114;SDS011;5097;43.260;27.812;2023-08-30T03:17:37;12.38;;;11.18;;
10114;SDS011;5097;43.260;27.812;2023-08-30T03:20:21;13.43;;;12.02;;
10114;SDS011;5097;43.260;27.812;2023-08-30T03:23:07;13.07;;;11.73;;
10114;SDS011;5097;43.260;27.812;2023-08-30T03:25:51;12.50;;;11.30;;
10114;SDS011;5097;43.260;27.812;2023-08-30T03:28:35;12.63;;;11.32;;
10114;SDS011;5097;43.260;27.812;2023-08-30T03:31:21;14.23;;;12.43;;
10114;SDS011;5097;43.260;27.812;2023-08-30T03:34:06;13.05;;;11.82;;
10114;SDS011;5097;43.260;27.812;2023-08-30T03:36:50;14.20;;;12.75;;
10114;SDS011;5097;43.260;27.812;2023-08-30T03:39:38;13.63;;;12.23;;
10114;SDS011;5097;43.260;27.812;2023-08-30T03:42:22;14.07;;;12.48;;
10114;SDS011;5097;43.260;27.812;2023-08-30T03:45:07;14.00;;;12.57;;
10114;SDS011;5097;43.260;27.812;2023-08-30T03:47:52;16.48;;;11.85;;
10114;SDS011;5097;43.260;27.812;2023-08-30T03:50:36;14.18;;;11.93;;
10114;SDS011;5097;43.260;27.812;2023-08-30T03:53:21;16.67;;;13.30;;
10114;SDS011;5097;43.260;27.812;2023-08-30T03:56:07;13.10;;;11.80;;
10114;SDS011;5097;43.260;27.812;2023-08-30T03:58:52;13.27;;;11.52;;
10114;SDS011;5097;43.260;27.812;2023-08-30T04:01:36;12.27;;;10.77;;
10114;SDS011;5097;43.260;27.812;2023-08-30T04:04:20;10.50;;;9.52;;
10114;SDS011;5097;43.260;27.812;2023-08-30T04:07:04;10.23;;;9.23;;
10114;SDS011;5097;43.260;27.812;2023-08-30T04:09:49;11.48;;;10.20;;
10114;SDS011;5097;43.260;27.812;2023-08-30T04:12:35;10.88;;;9.77;;
10114;SDS011;5097;43.260;27.812;2023-08-30T04:15:19;12.20;;;10.95;;
10114;SDS011;5097;43.260;27.812;2023-08-30T04:18:04;11.80;;;10.40;;
10114;SDS011;5097;43.260;27.812;2023-08-30T04:20:49;11.15;;;9.95;;
10114;SDS011;5097;43.260;27.812;2023-08-30T04:23:34;11.48;;;10.48;;
10114;SDS011;5097;43.260;27.812;2023-08-30T04:26:19;11.77;;;10.65;;
10114;SDS011;5097;43.260;27.812;2023-08-30T04:29:05;11.38;;;10.23;;
10114;SDS011;5097;43.260;27.812;2023-08-30T04:31:49;11.98;;;10.88;;
10114;SDS011;5097;43.260;27.812;2023-08-30T04:34:33;12.15;;;10.93;;
10114;SDS011;5097;43.260;27.812;2023-08-30T04:37:17;13.65;;;12.25;;
10114;SDS011;5097;43.260;27.812;2023-08-30T04:40:02;15.73;;;12.40;;
10114;SDS011;5097;43.260;27.812;2023-08-30T04:42:46;15.50;;;13.55;;
10114;SDS011;5097;43.260;27.812;2023-08-30T04:45:31;16.00;;;13.48;;
10114;SDS011;5097;43.260;27.812;2023-08-30T04:48:20;14.77;;;13.20;;
10114;SDS011;5097;43.260;27.812;2023-08-30T04:51:06;17.20;;;13.77;;
10114;SDS011;5097;43.260;27.812;2023-08-30T04:53:50;16.38;;;13.20;;
10114;SDS011;5097;43.260;27.812;2023-08-30T04:56:35;13.55;;;11.90;;
10114;SDS011;5097;43.260;27.812;2023-08-30T04:59:18;15.18;;;12.48;;
10114;SDS011;5097;43.260;27.812;2023-08-30T05:02:05;11.32;;;10.13;;
10114;SDS011;5097;43.260;27.812;2023-08-30T05:04:55;10.65;;;9.65;;
10114;SDS011;5097;43.260;27.812;2023-08-30T05:07:39;9.93;;;9.02;;
10114;SDS011;5097;43.260;27.812;2023-08-30T05:10:23;12.32;;;11.23;;
10114;SDS011;5097;43.260;27.812;2023-08-30T05:13:08;12.30;;;11.07;;
10114;SDS011;5097;43.260;27.812;2023-08-30T05:15:53;9.13;;;8.23;;
10114;SDS011;5097;43.260;27.812;2023-08-30T05:18:38;9.43;;;7.18;;
10114;SDS011;5097;43.260;27.812;2023-08-30T05:21:22;8.18;;;7.38;;
10114;SDS011;5097;43.260;27.812;2023-08-30T05:24:07;7.18;;;6.60;;
10114;SDS011;5097;43.260;27.812;2023-08-30T05:26:52;6.72;;;6.22;;
10114;SDS011;5097;43.260;27.812;2023-08-30T05:29:39;8.98;;;6.97;;
10114;SDS011;5097;43.260;27.812;2023-08-30T05:32:24;7.00;;;6.40;;
10114;SDS011;5097;43.260;27.812;2023-08-30T05:35:34;6.28;;;5.78;;
10114;SDS011;5097;43.260;27.812;2023-08-30T05:38:41;6.53;;;5.95;;
10114;SDS011;5097;43.260;27.812;2023-08-30T05:41:48;6.30;;;5.70;;
10114;SDS011;5097;43.260;27.812;2023-08-30T05:44:32;5.93;;;5.43;;
10114;SDS011;5097;43.260;27.812;2023-08-30T05:47:16;7.63;;;6.22;;
10114;SDS011;5097;43.260;27.812;2023-08-30T05:50:01;6.30;;;5.72;;
10114;SDS011;5097;43.260;27.812;2023-08-30T05:52:47;6.82;;;5.97;;
10114;SDS011;5097;43.260;27.812;2023-08-30T05:55:33;5.60;;;5.20;;
10114;SDS011;5097;43.260;27.812;2023-08-30T05:58:17;5.43;;;5.03;;
10114;SDS011;5097;43.260;27.812;2023-08-30T06:01:02;6.45;;;5.85;;
10114;SDS011;5097;43.260;27.812;2023-08-30T06:03:48;8.43;;;5.57;;
10114;SDS011;5097;43.260;27.812;2023-08-30T06:06:32;6.25;;;5.65;;
10114;SDS011;5097;43.260;27.812;2023-08-30T06:09:17;6.32;;;5.82;;
10114;SDS011;5097;43.260;27.812;2023-08-30T06:12:02;7.78;;;5.28;;
10114;SDS011;5097;43.260;27.812;2023-08-30T06:14:46;6.00;;;5.00;;
10114;SDS011;5097;43.260;27.812;2023-08-30T06:17:34;5.80;;;5.28;;
10114;SDS011;5097;43.260;27.812;2023-08-30T06:20:18;6.10;;;5.43;;
10114;SDS011;5097;43.260;27.812;2023-08-30T06:23:02;6.07;;;5.47;;
10114;SDS011;5097;43.260;27.812;2023-08-30T06:25:54;6.13;;;5.63;;
10114;SDS011;5097;43.260;27.812;2023-08-30T06:28:38;6.78;;;6.03;;
10114;SDS011;5097;43.260;27.812;2023-08-30T06:31:24;6.00;;;5.30;;
10114;SDS011;5097;43.260;27.812;2023-08-30T06:34:08;6.65;;;5.88;;
10114;SDS011;5097;43.260;27.812;2023-08-30T06:36:52;6.07;;;5.57;;
10114;SDS011;5097;43.260;27.812;2023-08-30T06:39:36;7.35;;;5.80;;
10114;SDS011;5097;43.260;27.812;2023-08-30T06:42:22;5.72;;;5.18;;
10114;SDS011;5097;43.260;27.812;2023-08-30T06:45:07;5.18;;;4.78;;
10114;SDS011;5097;43.260;27.812;2023-08-30T06:47:51;6.72;;;6.10;;
10114;SDS011;5097;43.260;27.812;2023-08-30T06:50:35;5.80;;;5.30;;
10114;SDS011;5097;43.260;27.812;2023-08-30T06:53:19;5.75;;;5.25;;
10114;SDS011;5097;43.260;27.812;2023-08-30T06:56:03;6.13;;;5.50;;
10114;SDS011;5097;43.260;27.812;2023-08-30T06:58:48;6.10;;;5.50;;
10114;SDS011;5097;43.260;27.812;2023-08-30T07:01:32;6.15;;;5.63;;
10114;SDS011;5097;43.260;27.812;2023-08-30T07:04:18;5.72;;;5.22;;
10114;SDS011;5097;43.260;27.812;2023-08-30T07:07:02;5.55;;;5.13;;
10114;SDS011;5097;43.260;27.812;2023-08-30T07:09:46;6.28;;;5.68;;
10114;SDS011;5097;43.260;27.812;2023-08-30T07:12:30;8.68;;;5.63;;
10114;SDS011;5097;43.260;27.812;2023-08-30T07:15:15;5.70;;;5.28;;
10114;SDS011;5097;43.260;27.812;2023-08-30T07:18:00;6.20;;;5.70;;
10114;SDS011;5097;43.260;27.812;2023-08-30T07:20:45;6.03;;;5.45;;
10114;SDS011;5097;43.260;27.812;2023-08-30T07:23:29;5.80;;;5.40;;
10114;SDS011;5097;43.260;27.812;2023-08-30T07:26:13;6.35;;;5.75;;
10114;SDS011;5097;43.260;27.812;2023-08-30T07:28:57;5.40;;;4.90;;
10114;SDS011;5097;43.260;27.812;2023-08-30T07:31:43;5.63;;;5.05;;
10114;SDS011;5097;43.260;27.812;2023-08-30T07:34:26;6.47;;;5.28;;
10114;SDS011;5097;43.260;27.812;2023-08-30T07:37:17;5.57;;;5.18;;
10114;SDS011;5097;43.260;27.812;2023-08-30T07:40:02;4.85;;;4.43;;
10114;SDS011;5097;43.260;27.812;2023-08-30T07:42:47;5.07;;;4.60;;
10114;SDS011;5097;43.260;27.812;2023-08-30T07:45:31;5.47;;;5.05;;
10114;SDS011;5097;43.260;27.812;2023-08-30T07:48:16;5.05;;;4.65;;
10114;SDS011;5097;43.260;27.812;2023-08-30T07:51:00;5.70;;;5.30;;
10114;SDS011;5097;43.260;27.812;2023-08-30T07:53:44;5.35;;;4.88;;
10114;SDS011;5097;43.260;27.812;2023-08-30T07:56:28;5.53;;;5.03;;
10114;SDS011;5097;43.260;27.812;2023-08-30T07:59:12;5.68;;;5.22;;
10114;SDS011;5097;43.260;27.812;2023-08-30T08:01:56;5.20;;;4.80;;
10114;SDS011;5097;43.260;27.812;2023-08-30T08:04:42;5.20;;;4.80;;
10114;SDS011;5097;43.260;27.812;2023-08-30T08:07:26;5.13;;;4.72;;
10114;SDS011;5097;43.260;27.812;2023-08-30T08:10:10;5.68;;;5.18;;
10114;SDS011;5097;43.260;27.812;2023-08-30T08:12:55;4.97;;;4.57;;
10114;SDS011;5097;43.260;27.812;2023-08-30T08:15:40;4.68;;;4.28;;
10114;SDS011;5097;43.260;27.812;2023-08-30T08:18:26;5.38;;;4.90;;
10114;SDS011;5097;43.260;27.812;2023-08-30T08:21:12;5.35;;;4.95;;
10114;SDS011;5097;43.260;27.812;2023-08-30T08:23:56;5.45;;;4.97;;
10114;SDS011;5097;43.260;27.812;2023-08-30T08:26:40;5.18;;;4.78;;
10114;SDS011;5097;43.260;27.812;2023-08-30T08:29:26;5.78;;;4.80;;
10114;SDS011;5097;43.260;27.812;2023-08-30T08:32:10;6.80;;;5.53;;
10114;SDS011;5097;43.260;27.812;2023-08-30T08:34:55;7.05;;;6.38;;
10114;SDS011;5097;43.260;27.812;2023-08-30T08:37:41;5.28;;;4.78;;
10114;SDS011;5097;43.260;27.812;2023-08-30T08:40:25;5.70;;;4.90;;
10114;SDS011;5097;43.260;27.812;2023-08-30T08:43:24;5.70;;;5.03;;
10114;SDS011;5097;43.260;27.812;2023-08-30T08:46:09;5.97;;;5.38;;
10114;SDS011;5097;43.260;27.812;2023-08-30T08:48:54;5.22;;;4.55;;
10114;SDS011;5097;43.260;27.812;2023-08-30T08:51:40;4.95;;;4.55;;
10114;SDS011;5097;43.260;27.812;2023-08-30T08:54:27;5.35;;;4.70;;
10114;SDS011;5097;43.260;27.812;2023-08-30T08:57:12;5.60;;;5.10;;
10114;SDS011;5097;43.260;27.812;2023-08-30T08:59:57;6.30;;;5.43;;
10114;SDS011;5097;43.260;27.812;2023-08-30T09:02:44;6.10;;;5.53;;
10114;SDS011;5097;43.260;27.812;2023-08-30T09:05:29;7.18;;;5.10;;
10114;SDS011;5097;43.260;27.812;2023-08-30T09:08:14;6.57;;;5.28;;
10114;SDS011;5097;43.260;27.812;2023-08-30T09:11:01;5.30;;;4.80;;
10114;SDS011;5097;43.260;27.812;2023-08-30T09:13:45;6.35;;;5.00;;
10114;SDS011;5097;43.260;27.812;2023-08-30T09:16:30;5.30;;;4.80;;
10114;SDS011;5097;43.260;27.812;2023-08-30T09:19:19;5.15;;;4.65;;
10114;SDS011;5097;43.260;27.812;2023-08-30T09:22:04;5.28;;;4.78;;
10114;SDS011;5097;43.260;27.812;2023-08-30T09:24:48;5.22;;;4.72;;
10114;SDS011;5097;43.260;27.812;2023-08-30T09:27:33;5.30;;;4.80;;
10114;SDS011;5097;43.260;27.812;2023-08-30T09:30:21;5.00;;;4.60;;
10114;SDS011;5097;43.260;27.812;2023-08-30T09:33:05;5.30;;;4.80;;
10114;SDS011;5097;43.260;27.812;2023-08-30T09:35:50;5.30;;;4.80;;
10114;SDS011;5097;43.260;27.812;2023-08-30T09:38:34;5.68;;;5.05;;
10114;SDS011;5097;43.260;27.812;2023-08-30T09:41:20;6.55;;;5.22;;
10114;SDS011;5097;43.260;27.812;2023-08-30T09:44:08;5.20;;;4.78;;
10114;SDS011;5097;43.260;27.812;2023-08-30T09:46:56;5.28;;;4.88;;
10114;SDS011;5097;43.260;27.812;2023-08-30T09:49:42;5.65;;;5.07;;
10114;SDS011;5097;43.260;27.812;2023-08-30T09:52:28;6.03;;;5.00;;
10114;SDS011;5097;43.260;27.812;2023-08-30T09:55:14;5.22;;;4.82;;
10114;SDS011;5097;43.260;27.812;2023-08-30T09:57:59;4.78;;;4.38;;
10114;SDS011;5097;43.260;27.812;2023-08-30T10:00:45;7.55;;;4.80;;
10114;SDS011;5097;43.260;27.812;2023-08-30T10:03:30;4.95;;;4.57;;
10114;SDS011;5097;43.260;27.812;2023-08-30T10:06:16;5.13;;;4.72;;
10114;SDS011;5097;43.260;27.812;2023-08-30T10:09:01;4.70;;;4.25;;
10114;SDS011;5097;43.260;27.812;2023-08-30T10:11:47;4.88;;;4.22;;
10114;SDS011;5097;43.260;27.812;2023-08-30T10:14:32;5.00;;;4.47;;
10114;SDS011;5097;43.260;27.812;2023-08-30T10:17:18;5.43;;;4.13;;
10114;SDS011;5097;43.260;27.812;2023-08-30T10:20:03;4.85;;;4.40;;
10114;SDS011;5097;43.260;27.812;2023-08-30T10:22:49;4.57;;;4.18;;
10114;SDS011;5097;43.260;27.812;2023-08-30T10:25:36;5.15;;;4.70;;
10114;SDS011;5097;43.260;27.812;2023-08-30T10:28:21;6.28;;;4.57;;
10114;SDS011;5097;43.260;27.812;2023-08-30T10:31:07;4.68;;;4.28;;
10114;SDS011;5097;43.260;27.812;2023-08-30T10:33:53;4.88;;;4.47;;
10114;SDS011;5097;43.260;27.812;2023-08-30T10:36:38;4.78;;;3.97;;
10114;SDS011;5097;43.260;27.812;2023-08-30T10:39:26;5.05;;;4.28;;
10114;SDS011;5097;43.260;27.812;2023-08-30T10:42:21;6.15;;;4.63;;
10114;SDS011;5097;43.260;27.812;2023-08-30T10:45:06;4.30;;;3.90;;
10114;SDS011;5097;43.260;27.812;2023-08-30T10:47:56;5.00;;;4.55;;
10114;SDS011;5097;43.260;27.812;2023-08-30T10:50:43;4.68;;;4.07;;
10114;SDS011;5097;43.260;27.812;2023-08-30T10:53:28;4.40;;;4.00;;
10114;SDS011;5097;43.260;27.812;2023-08-30T10:56:13;5.43;;;4.45;;
10114;SDS011;5097;43.260;27.812;2023-08-30T10:58:58;4.57;;;4.07;;
10114;SDS011;5097;43.260;27.812;2023-08-30T11:01:45;7.70;;;5.00;;
10114;SDS011;5097;43.260;27.812;2023-08-30T11:04:31;8.07;;;4.72;;
10114;SDS011;5097;43.260;27.812;2023-08-30T11:07:16;4.72;;;4.32;;
10114;SDS011;5097;43.260;27.812;2023-08-30T11:10:04;5.53;;;4.43;;
10114;SDS011;5097;43.260;27.812;2023-08-30T11:12:49;4.20;;;3.85;;
10114;SDS011;5097;43.260;27.812;2023-08-30T11:15:34;4.85;;;4.10;;
10114;SDS011;5097;43.260;27.812;2023-08-30T11:18:18;4.45;;;4.00;;
10114;SDS011;5097;43.260;27.812;2023-08-30T11:21:02;4.38;;;4.07;;
10114;SDS011;5097;43.260;27.812;2023-08-30T11:23:48;4.65;;;4.18;;
10114;SDS011;5097;43.260;27.812;2023-08-30T11:26:32;4.57;;;4.18;;
10114;SDS011;5097;43.260;27.812;2023-08-30T11:29:16;6.15;;;4.72;;
10114;SDS011;5097;43.260;27.812;2023-08-30T11:32:00;5.38;;;4.07;;
10114;SDS011;5097;43.260;27.812;2023-08-30T11:34:44;5.00;;;3.92;;
10114;SDS011;5097;43.260;27.812;2023-08-30T11:37:38;4.60;;;4.30;;
10114;SDS011;5097;43.260;27.812;2023-08-30T11:40:26;5.75;;;4.28;;
10114;SDS011;5097;43.260;27.812;2023-08-30T11:43:11;4.40;;;3.83;;
10114;SDS011;5097;43.260;27.812;2023-08-30T11:45:58;4.57;;;3.60;;
10114;SDS011;5097;43.260;27.812;2023-08-30T11:48:42;4.18;;;3.60;;
10114;SDS011;5097;43.260;27.812;2023-08-30T11:51:27;5.88;;;3.83;;
10114;SDS011;5097;43.260;27.812;2023-08-30T11:54:11;5.00;;;4.60;;
10114;SDS011;5097;43.260;27.812;2023-08-30T11:56:56;4.38;;;3.80;;
10114;SDS011;5097;43.260;27.812;2023-08-30T11:59:40;3.95;;;3.65;;
10114;SDS011;5097;43.260;27.812;2023-08-30T12:02:25;6.55;;;4.50;;
10114;SDS011;5097;43.260;27.812;2023-08-30T12:05:10;5.15;;;4.68;;
10114;SDS011;5097;43.260;27.812;2023-08-30T12:07:55;4.38;;;3.97;;
10114;SDS011;5097;43.260;27.812;2023-08-30T12:10:39;3.72;;;3.45;;
10114;SDS011;5097;43.260;27.812;2023-08-30T12:13:24;4.10;;;3.80;;
10114;SDS011;5097;43.260;27.812;2023-08-30T12:16:09;4.63;;;3.70;;
10114;SDS011;5097;43.260;27.812;2023-08-30T12:19:07;4.15;;;3.85;;
10114;SDS011;5097;43.260;27.812;2023-08-30T12:21:52;5.45;;;4.10;;
10114;SDS011;5097;43.260;27.812;2023-08-30T12:24:42;4.95;;;3.85;;
10114;SDS011;5097;43.260;27.812;2023-08-30T12:27:27;4.53;;;3.70;;
10114;SDS011;5097;43.260;27.812;2023-08-30T12:30:13;3.92;;;3.63;;
10114;SDS011;5097;43.260;27.812;2023-08-30T12:33:00;3.80;;;3.53;;
10114;SDS011;5097;43.260;27.812;2023-08-30T12:35:45;4.60;;;4.03;;
10114;SDS011;5097;43.260;27.812;2023-08-30T12:38:29;4.43;;;3.90;;
10114;SDS011;5097;43.260;27.812;2023-08-30T12:41:13;5.10;;;3.70;;
10114;SDS011;5097;43.260;27.812;2023-08-30T12:43:57;3.83;;;3.42;;
10114;SDS011;5097;43.260;27.812;2023-08-30T12:46:43;4.20;;;3.72;;
10114;SDS011;5097;43.260;27.812;2023-08-30T12:49:26;4.35;;;3.45;;
10114;SDS011;5097;43.260;27.812;2023-08-30T12:52:11;8.75;;;3.85;;
10114;SDS011;5097;43.260;27.812;2023-08-30T12:54:54;5.68;;;3.95;;
10114;SDS011;5097;43.260;27.812;2023-08-30T12:57:38;3.95;;;3.60;;
10114;SDS011;5097;43.260;27.812;2023-08-30T13:00:22;4.80;;;4.07;;
10114;SDS011;5097;43.260;27.812;2023-08-30T13:03:08;4.28;;;3.88;;
10114;SDS011;5097;43.260;27.812;2023-08-30T13:05:53;5.25;;;4.03;;
10114;SDS011;5097;43.260;27.812;2023-08-30T13:08:38;4.50;;;4.13;;
10114;SDS011;5097;43.260;27.812;2023-08-30T13:11:22;5.70;;;3.70;;
10114;SDS011;5097;43.260;27.812;2023-08-30T13:14:08;5.80;;;4.07;;
10114;SDS011;5097;43.260;27.812;2023-08-30T13:16:52;5.20;;;4.10;;
10114;SDS011;5097;43.260;27.812;2023-08-30T13:19:37;4.18;;;3.70;;
10114;SDS011;5097;43.260;27.812;2023-08-30T13:22:21;3.67;;;3.38;;
10114;SDS011;5097;43.260;27.812;2023-08-30T13:25:06;4.40;;;4.00;;
10114;SDS011;5097;43.260;27.812;2023-08-30T13:27:52;3.97;;;3.58;;
10114;SDS011;5097;43.260;27.812;2023-08-30T13:30:35;3.90;;;3.60;;
10114;SDS011;5097;43.260;27.812;2023-08-30T13:33:19;3.65;;;3.35;;
10114;SDS011;5097;43.260;27.812;2023-08-30T13:36:05;4.57;;;3.92;;
10114;SDS011;5097;43.260;27.812;2023-08-30T13:38:49;6.03;;;3.92;;
10114;SDS011;5097;43.260;27.812;2023-08-30T13:41:33;5.88;;;3.80;;
10114;SDS011;5097;43.260;27.812;2023-08-30T13:44:18;4.20;;;3.70;;
10114;SDS011;5097;43.260;27.812;2023-08-30T13:47:02;3.85;;;3.50;;
10114;SDS011;5097;43.260;27.812;2023-08-30T13:49:46;4.75;;;4.28;;
10114;SDS011;5097;43.260;27.812;2023-08-30T13:52:32;5.50;;;3.50;;
10114;SDS011;5097;43.260;27.812;2023-08-30T13:55:16;3.92;;;3.63;;
10114;SDS011;5097;43.260;27.812;2023-08-30T13:58:01;5.70;;;3.53;;
10114;SDS011;5097;43.260;27.812;2023-08-30T14:00:44;4.20;;;3.80;;
10114;SDS011;5097;43.260;27.812;2023-08-30T14:03:29;4.30;;;3.40;;
10114;SDS011;5097;43.260;27.812;2023-08-30T14:06:12;4.72;;;3.80;;
10114;SDS011;5097;43.260;27.812;2023-08-30T14:08:58;4.30;;;3.63;;
10114;SDS011;5097;43.260;27.812;2023-08-30T14:11:42;5.47;;;3.83;;
10114;SDS011;5097;43.260;27.812;2023-08-30T14:14:26;4.35;;;3.90;;
10114;SDS011;5097;43.260;27.812;2023-08-30T14:17:10;3.67;;;3.38;;
10114;SDS011;5097;43.260;27.812;2023-08-30T14:19:55;3.80;;;3.40;;
10114;SDS011;5097;43.260;27.812;2023-08-30T14:22:39;4.93;;;3.80;;
10114;SDS011;5097;43.260;27.812;2023-08-30T14:25:24;6.00;;;3.30;;
10114;SDS011;5097;43.260;27.812;2023-08-30T14:28:08;4.97;;;3.53;;
10114;SDS011;5097;43.260;27.812;2023-08-30T14:30:53;5.75;;;3.63;;
10114;SDS011;5097;43.260;27.812;2023-08-30T14:33:37;3.83;;;3.50;;
10114;SDS011;5097;43.260;27.812;2023-08-30T14:36:23;3.92;;;3.20;;
10114;SDS011;5097;43.260;27.812;2023-08-30T14:39:07;3.85;;;3.47;;
10114;SDS011;5097;43.260;27.812;2023-08-30T14:41:53;5.10;;;3.38;;
10114;SDS011;5097;43.260;27.812;2023-08-30T14:44:37;3.50;;;3.20;;
10114;SDS011;5097;43.260;27.812;2023-08-30T14:47:20;3.80;;;2.88;;
10114;SDS011;5097;43.260;27.812;2023-08-30T14:50:05;3.75;;;3.42;;
10114;SDS011;5097;43.260;27.812;2023-08-30T14:52:50;3.28;;;3.08;;
10114;SDS011;5097;43.260;27.812;2023-08-30T14:55:37;5.07;;;3.90;;
10114;SDS011;5097;43.260;27.812;2023-08-30T14:58:22;3.72;;;3.10;;
10114;SDS011;5097;43.260;27.812;2023-08-30T15:01:06;6.10;;;3.60;;
10114;SDS011;5097;43.260;27.812;2023-08-30T15:03:50;3.58;;;3.20;;
10114;SDS011;5097;43.260;27.812;2023-08-30T15:06:34;3.88;;;3.47;;
10114;SDS011;5097;43.260;27.812;2023-08-30T15:09:21;3.45;;;3.15;;
10114;SDS011;5097;43.260;27.812;2023-08-30T15:12:05;4.38;;;3.30;;
10114;SDS011;5097;43.260;27.812;2023-08-30T15:14:51;3.20;;;2.92;;
10114;SDS011;5097;43.260;27.812;2023-08-30T15:17:36;4.35;;;3.63;;
10114;SDS011;5097;43.260;27.812;2023-08-30T15:20:20;4.03;;;3.63;;
10114;SDS011;5097;43.260;27.812;2023-08-30T15:23:04;4.90;;;3.83;;
10114;SDS011;5097;43.260;27.812;2023-08-30T15:25:48;5.03;;;3.40;;
10114;SDS011;5097;43.260;27.812;2023-08-30T15:28:32;4.13;;;3.72;;
10114;SDS011;5097;43.260;27.812;2023-08-30T15:31:17;5.65;;;3.92;;
10114;SDS011;5097;43.260;27.812;2023-08-30T15:34:01;5.82;;;4.00;;
10114;SDS011;5097;43.260;27.812;2023-08-30T15:36:45;3.67;;;3.38;;
10114;SDS011;5097;43.260;27.812;2023-08-30T15:39:29;4.20;;;3.85;;
10114;SDS011;5097;43.260;27.812;2023-08-30T15:42:13;5.40;;;3.90;;
10114;SDS011;5097;43.260;27.812;2023-08-30T15:44:57;5.53;;;4.05;;
10114;SDS011;5097;43.260;27.812;2023-08-30T15:47:46;6.15;;;4.00;;
10114;SDS011;5097;43.260;27.812;2023-08-30T15:50:30;4.47;;;3.72;;
10114;SDS011;5097;43.260;27.812;2023-08-30T15:53:14;3.92;;;3.63;;
10114;SDS011;5097;43.260;27.812;2023-08-30T15:55:57;4.43;;;3.92;;
10114;SDS011;5097;43.260;27.812;2023-08-30T15:58:41;4.38;;;3.60;;
10114;SDS011;5097;43.260;27.812;2023-08-30T16:01:25;5.35;;;4.18;;
10114;SDS011;5097;43.260;27.812;2023-08-30T16:04:11;4.72;;;3.88;;
10114;SDS011;5097;43.260;27.812;2023-08-30T16:06:55;5.07;;;3.83;;
10114;SDS011;5097;43.260;27.812;2023-08-30T16:09:39;6.85;;;4.00;;
10114;SDS011;5097;43.260;27.812;2023-08-30T16:12:23;4.07;;;3.67;;
10114;SDS011;5097;43.260;27.812;2023-08-30T16:15:07;5.78;;;3.60;;
10114;SDS011;5097;43.260;27.812;2023-08-30T16:17:52;4.57;;;4.03;;
10114;SDS011;5097;43.260;27.812;2023-08-30T16:20:37;6.70;;;4.10;;
10114;SDS011;5097;43.260;27.812;2023-08-30T16:23:21;3.72;;;3.42;;
10114;SDS011;5097;43.260;27.812;2023-08-30T16:26:06;4.57;;;3.88;;
10114;SDS011;5097;43.260;27.812;2023-08-30T16:28:50;5.50;;;3.85;;
10114;SDS011;5097;43.260;27.812;2023-08-30T16:31:34;6.10;;;4.50;;